Lakki Marwat Weather



Lakki Marwat's Current Weather

Temprature 41.8o few clouds

few clouds

Rain: 0 %

Min Temprature41.8o
Max Temprature41.8o
Humidity20
Wind Speed1.82 m/h
Sun Rise05:24:55
Sun Set19:20:28
Current Time: 24-Jul-2021 15:37:26
Lat/Lon: 32.6079, 70.9114




Lakki Marwat's Geo Location



Lakki Marwat's Weather Forecast

Time Overall Temp Min Temp Max Temp Humidity Wind Speed Rain
24-Jul-2021 (Sat)
17:00:00 few clouds 41.910 41.910 41.910 19 1.89 m/h 0 %
20:00:00 few clouds 41.420 40.440 41.420 21 1.48 m/h 0 %
23:00:00 clear sky 39.720 38.630 39.720 25 3.35 m/h 0 %
25-Jul-2021 (Sun)
02:00:00 clear sky 36.950 36.950 36.950 32 3.14 m/h 0 %
05:00:00 clear sky 35.260 35.260 35.260 40 2.32 m/h 0 %
08:00:00 clear sky 37.190 37.190 37.190 35 1.62 m/h 0 %
11:00:00 clear sky 40.370 40.370 40.370 27 2.07 m/h 0 %
14:00:00 clear sky 42.850 42.850 42.850 22 2.06 m/h 0 %
17:00:00 clear sky 43.950 43.950 43.950 19 2.26 m/h 0 %
20:00:00 clear sky 42.370 42.370 42.370 24 2.36 m/h 0 %
23:00:00 clear sky 40.140 40.140 40.140 28 3.76 m/h 0 %
26-Jul-2021 (Mon)
02:00:00 broken clouds 38.980 38.980 38.980 30 2.22 m/h 0 %
05:00:00 broken clouds 37.280 37.280 37.280 35 2.15 m/h 0 %
08:00:00 overcast clouds 37.640 37.640 37.640 38 3.88 m/h 0 %
11:00:00 broken clouds 40.760 40.760 40.760 32 3.18 m/h 0 %
14:00:00 clear sky 43.370 43.370 43.370 24 2.13 m/h 0 %
17:00:00 clear sky 44.380 44.380 44.380 21 2.27 m/h 0 %
20:00:00 broken clouds 43.160 43.160 43.160 24 2.3 m/h 0 %
23:00:00 broken clouds 41.040 41.040 41.040 28 4.39 m/h 0 %
27-Jul-2021 (Tue)
02:00:00 broken clouds 38.550 38.550 38.550 36 2.8 m/h 0 %
05:00:00 broken clouds 36.910 36.910 36.910 42 2.82 m/h 0 %
08:00:00 broken clouds 37.270 37.270 37.270 40 4.91 m/h 0 %
11:00:00 broken clouds 39.410 39.410 39.410 37 4.93 m/h 0 %
14:00:00 overcast clouds 41.760 41.760 41.760 31 4.84 m/h 0 %
17:00:00 broken clouds 42.370 42.370 42.370 29 5.63 m/h 0 %
20:00:00 clear sky 40.790 40.790 40.790 32 7.19 m/h 0 %
23:00:00 light rain 36.440 36.440 36.440 43 10.3 m/h 20 %
28-Jul-2021 (Wed)
02:00:00 light rain 33.590 33.590 33.590 52 5.44 m/h 41 %
05:00:00 light rain 32.840 32.840 32.840 55 2.63 m/h 211 %
08:00:00 clear sky 33.700 33.700 33.700 53 3.23 m/h 0 %
11:00:00 clear sky 36.410 36.410 36.410 46 4.98 m/h 0 %
14:00:00 broken clouds 38.180 38.180 38.180 40 4.36 m/h 0 %
17:00:00 light rain 38.510 38.510 38.510 37 5.77 m/h 76 %
20:00:00 light rain 35.170 35.170 35.170 49 9.62 m/h 20 %
23:00:00 light rain 30.700 30.700 30.700 68 7.5 m/h 102 %
29-Jul-2021 (Thu)
02:00:00 light rain 29.450 29.450 29.450 74 5.21 m/h 181 %
05:00:00 light rain 29.380 29.380 29.380 74 3.45 m/h 48 %
08:00:00 light rain 29.260 29.260 29.260 75 2.32 m/h 158 %
11:00:00 light rain 32.100 32.100 32.100 62 0.58 m/h 82 %
14:00:00 scattered clouds 35.310 35.310 35.310 50 0.79 m/h 0 %

Famous Cities (60)